Time;durP1;ratioP1;P1;durP2;ratioP2;P2;SDS_P1;SDS_P2;PMS_P1;PMS_P2;Temp;Humidity;BMP_temperature;BMP_pressure;BME280_temperature;BME280_humidity;BME280_pressure;Samples;Min_cycle;Max_cycle;Signal;HPM_P1;HPM_P2
2022/10/28 00:00:13;;;;;;;157.80;133.60;;;;;20.60;100760.00;;;;2071344;28;20210;-56
2022/10/28 00:01:18;;;;;;;162.20;134.53;;;;;20.60;100757.00;;;;2071975;28;20229;-55
2022/10/28 00:02:18;;;;;;;160.32;133.02;;;;;20.60;100754.00;;;;2070215;28;20463;-56
2022/10/28 00:03:18;;;;;;;158.00;132.23;;;;;20.60;100757.00;;;;2071272;28;20221;-56
2022/10/28 00:04:19;;;;;;;157.10;134.30;;;;;20.60;100754.00;;;;2079361;28;20594;-56
2022/10/28 00:05:19;;;;;;;156.00;131.37;;;;;20.60;100746.00;;;;2080337;28;20241;-57
2022/10/28 00:06:21;;;;;;;152.60;130.20;;;;;20.60;100755.00;;;;2079628;28;20283;-55
2022/10/28 00:07:22;;;;;;;151.23;129.75;;;;;20.60;100752.00;;;;2079574;28;20213;-55
2022/10/28 00:08:22;;;;;;;153.07;131.60;;;;;20.60;100755.00;;;;2076111;28;20642;-56
2022/10/28 00:09:22;;;;;;;155.10;129.67;;;;;20.60;100750.00;;;;2072113;28;20567;-55
2022/10/28 00:10:23;;;;;;;148.53;126.53;;;;;20.60;100748.00;;;;2072337;28;20605;-57
2022/10/28 00:11:25;;;;;;;149.97;129.77;;;;;20.60;100752.00;;;;2071970;28;20947;-56
2022/10/28 00:12:25;;;;;;;156.80;130.63;;;;;20.60;100750.00;;;;2070804;28;20639;-57
2022/10/28 00:13:26;;;;;;;151.47;128.30;;;;;20.60;100718.00;;;;2071434;28;20229;-56
2022/10/28 00:14:26;;;;;;;154.63;127.60;;;;;20.60;100747.00;;;;2071777;28;20253;-56
2022/10/28 00:15:26;;;;;;;144.47;124.00;;;;;20.60;100746.00;;;;2070800;28;20226;-56
2022/10/28 00:16:29;;;;;;;141.57;123.67;;;;;20.60;100746.00;;;;2071860;28;20713;-55
2022/10/28 00:17:29;;;;;;;148.15;126.15;;;;;20.60;100747.00;;;;2072034;28;20594;-57
2022/10/28 00:18:29;;;;;;;141.97;121.80;;;;;20.60;100750.00;;;;2071176;28;20210;-55
2022/10/28 00:19:30;;;;;;;143.40;125.50;;;;;20.60;100737.00;;;;2073683;28;20210;-56
2022/10/28 00:20:30;;;;;;;143.70;122.83;;;;;20.60;100749.00;;;;2072634;28;20210;-55
2022/10/28 00:21:33;;;;;;;143.07;123.30;;;;;20.60;100745.00;;;;2072061;28;20322;-55
2022/10/28 00:22:34;;;;;;;137.18;119.70;;;;;20.60;100750.00;;;;2071116;28;20226;-56
2022/10/28 00:23:34;;;;;;;138.57;118.97;;;;;20.60;100747.00;;;;2078666;28;20622;-57
2022/10/28 00:24:35;;;;;;;136.63;118.40;;;;;20.60;100741.00;;;;2079264;28;20240;-57
2022/10/28 00:25:36;;;;;;;139.95;119.00;;;;;20.60;100743.00;;;;2079513;28;20216;-56
2022/10/28 00:26:37;;;;;;;138.83;117.30;;;;;20.60;100749.00;;;;2079071;28;20225;-57
2022/10/28 00:27:37;;;;;;;133.93;118.35;;;;;20.60;100737.00;;;;2076196;28;20276;-56
2022/10/28 00:28:45;;;;;;;143.83;122.77;;;;;20.60;100740.00;;;;2071724;28;20214;-57
2022/10/28 00:29:46;;;;;;;130.05;113.85;;;;;20.60;100735.00;;;;2070780;28;20222;-58
2022/10/28 00:30:46;;;;;;;139.93;116.17;;;;;20.60;100733.00;;;;2071229;28;20245;-57
2022/10/28 00:31:46;;;;;;;139.10;117.60;;;;;20.60;100737.00;;;;2078033;28;20236;-55
2022/10/28 00:32:47;;;;;;;132.80;111.53;;;;;20.60;100734.00;;;;2079454;28;20209;-57
2022/10/28 00:33:47;;;;;;;137.27;115.10;;;;;20.60;100724.00;;;;2078582;28;20252;-55
2022/10/28 00:34:47;;;;;;;129.70;110.27;;;;;20.60;100725.00;;;;2076246;28;20241;-55
2022/10/28 00:35:48;;;;;;;127.47;109.43;;;;;20.60;100721.00;;;;2070861;28;20234;-56
2022/10/28 00:36:48;;;;;;;127.07;111.57;;;;;20.60;100721.00;;;;2071193;28;20213;-57
2022/10/28 00:37:52;;;;;;;130.83;110.00;;;;;20.50;100723.00;;;;2071421;28;20254;-57
2022/10/28 00:38:53;;;;;;;127.20;109.88;;;;;20.50;100728.00;;;;2071443;28;20757;-56
2022/10/28 00:39:53;;;;;;;127.85;109.15;;;;;20.50;100726.00;;;;2070736;28;20299;-57
2022/10/28 00:40:53;;;;;;;122.67;106.53;;;;;20.60;100739.00;;;;2070347;28;20225;-58
2022/10/28 00:41:56;;;;;;;122.87;106.70;;;;;20.60;100726.00;;;;2071043;28;20631;-56
2022/10/28 00:42:56;;;;;;;125.60;107.00;;;;;20.60;100724.00;;;;2071772;28;20265;-58
2022/10/28 00:43:58;;;;;;;125.20;108.23;;;;;20.60;100718.00;;;;2071657;28;20713;-57
2022/10/28 00:45:00;;;;;;;126.57;108.78;;;;;20.60;100730.00;;;;2071929;28;20281;-58
2022/10/28 00:46:00;;;;;;;125.35;106.35;;;;;20.60;100711.00;;;;2071757;28;20210;-57
2022/10/28 00:47:01;;;;;;;124.40;107.00;;;;;20.60;100722.00;;;;2071201;28;21263;-56
2022/10/28 00:48:02;;;;;;;119.63;103.47;;;;;20.60;100722.00;;;;2070785;28;20254;-57
2022/10/28 00:49:19;;;;;;;116.43;102.95;;;;;20.60;100719.00;;;;2071138;28;20313;-56
2022/10/28 00:50:28;;;;;;;115.18;102.05;;;;;20.60;100717.00;;;;2075464;28;20213;-56
2022/10/28 00:51:28;;;;;;;124.70;107.60;;;;;20.60;100721.00;;;;2074492;28;20825;-58
2022/10/28 00:52:28;;;;;;;116.63;103.60;;;;;20.60;100721.00;;;;2070219;28;20290;-56
2022/10/28 00:53:29;;;;;;;115.57;102.90;;;;;20.60;100716.00;;;;2070791;28;20214;-56
2022/10/28 00:54:29;;;;;;;114.93;102.10;;;;;20.50;100715.00;;;;2063142;28;20793;-57
2022/10/28 00:55:30;;;;;;;116.77;103.07;;;;;20.60;100721.00;;;;2062489;28;20203;-57
2022/10/28 00:56:32;;;;;;;118.10;102.13;;;;;20.60;100712.00;;;;2062486;28;20262;-57
2022/10/28 00:57:35;;;;;;;122.70;104.85;;;;;20.60;100701.00;;;;2059048;28;20692;-56
2022/10/28 00:58:35;;;;;;;118.20;104.53;;;;;20.60;100714.00;;;;2060976;28;20203;-56
2022/10/28 00:59:37;;;;;;;119.90;100.43;;;;;20.60;100717.00;;;;2070231;28;20210;-58
2022/10/28 01:00:37;;;;;;;116.00;102.05;;;;;20.60;100711.00;;;;2062847;28;20207;-56
2022/10/28 01:01:38;;;;;;;109.27;97.40;;;;;20.60;100712.00;;;;2071271;28;20206;-56
2022/10/28 01:02:43;;;;;;;114.20;101.43;;;;;20.60;100715.00;;;;2079056;28;20214;-56
2022/10/28 01:03:44;;;;;;;119.20;102.38;;;;;20.60;100725.00;;;;2079804;28;20273;-56
2022/10/28 01:04:44;;;;;;;112.87;100.60;;;;;20.60;100711.00;;;;2079731;28;20224;-56
2022/10/28 01:05:46;;;;;;;111.80;96.40;;;;;20.60;100705.00;;;;2070657;28;20249;-56
2022/10/28 01:06:46;;;;;;;112.50;99.10;;;;;20.60;100717.00;;;;2062855;28;20280;-56
2022/10/28 01:07:48;;;;;;;116.47;101.23;;;;;20.60;100713.00;;;;2079210;28;20213;-56
2022/10/28 01:08:48;;;;;;;112.13;99.85;;;;;20.60;100709.00;;;;2079534;28;20237;-58
2022/10/28 01:09:49;;;;;;;109.60;95.10;;;;;20.60;100719.00;;;;2079424;28;20225;-57
2022/10/28 01:10:55;;;;;;;107.47;94.03;;;;;20.60;100715.00;;;;2080034;28;20224;-56
2022/10/28 01:12:09;;;;;;;106.13;93.68;;;;;20.60;100639.00;;;;2070385;28;20663;-56
2022/10/28 01:13:37;;;;;;;116.65;98.70;;;;;20.60;100719.00;;;;2075642;28;20244;-56
2022/10/28 01:15:03;;;;;;;112.72;98.47;;;;;20.60;100706.00;;;;2075423;28;20240;-55
2022/10/28 01:16:14;;;;;;;106.63;91.93;;;;;20.60;100706.00;;;;2078017;28;20208;-56
2022/10/28 01:17:31;;;;;;;111.82;94.63;;;;;20.60;100700.00;;;;2074428;28;20240;-57
2022/10/28 01:18:34;;;;;;;106.63;94.90;;;;;20.60;100711.00;;;;2079312;28;20279;-57
2022/10/28 01:20:11;;;;;;;106.72;93.13;;;;;20.60;100750.00;;;;2078542;28;20277;-56
2022/10/28 01:21:37;;;;;;;104.13;90.43;;;;;20.60;100712.00;;;;2071847;28;21024;-58
2022/10/28 01:22:58;;;;;;;108.30;94.40;;;;;20.60;100691.00;;;;2070381;28;20710;-57
2022/10/28 01:24:29;;;;;;;103.05;90.80;;;;;20.60;100719.00;;;;2078485;28;20209;-57
2022/10/28 01:25:53;;;;;;;98.03;87.22;;;;;20.60;100711.00;;;;2079438;28;20725;-56
2022/10/28 01:27:24;;;;;;;101.68;87.47;;;;;20.60;100727.00;;;;2079087;28;20221;-59
2022/10/28 01:28:58;;;;;;;101.97;87.50;;;;;20.60;100728.00;;;;2078714;28;20218;-58
2022/10/28 01:30:12;;;;;;;101.05;86.32;;;;;20.60;100716.00;;;;2078382;28;20252;-55
2022/10/28 01:31:41;;;;;;;101.03;88.90;;;;;20.60;100728.00;;;;2078524;28;20574;-57
2022/10/28 01:32:58;;;;;;;98.15;87.30;;;;;20.60;100725.00;;;;2075204;28;21234;-57
2022/10/28 01:34:17;;;;;;;99.75;88.32;;;;;20.60;100729.00;;;;2072653;28;20686;-56
2022/10/28 01:35:22;;;;;;;99.18;86.35;;;;;20.60;100729.00;;;;2078941;28;20225;-56
2022/10/28 01:36:38;;;;;;;97.10;85.00;;;;;20.60;100717.00;;;;2070432;28;20580;-55
2022/10/28 01:38:07;;;;;;;99.25;87.28;;;;;20.60;100727.00;;;;2066377;28;20284;-58
2022/10/28 01:39:10;;;;;;;98.65;84.40;;;;;20.60;100730.00;;;;2078652;28;20256;-56
2022/10/28 01:40:11;;;;;;;102.03;87.78;;;;;20.60;100718.00;;;;2078557;28;20302;-56
2022/10/28 01:41:49;;;;;;;95.50;84.90;;;;;20.50;100713.00;;;;2078891;28;20256;-56
2022/10/28 01:42:54;;;;;;;101.05;85.72;;;;;20.60;100699.00;;;;2075429;28;20456;-56
2022/10/28 01:44:07;;;;;;;97.35;86.00;;;;;20.60;100718.00;;;;2070934;28;20702;-57
2022/10/28 01:45:08;;;;;;;96.00;85.40;;;;;20.60;100715.00;;;;2078042;28;20229;-57
2022/10/28 01:46:39;;;;;;;94.87;84.70;;;;;20.60;100701.00;;;;2079400;28;20213;-57
2022/10/28 01:47:52;;;;;;;98.05;85.18;;;;;20.60;100702.00;;;;2064165;28;20785;-56
2022/10/28 01:48:58;;;;;;;94.05;83.97;;;;;20.60;100701.00;;;;2078688;28;20709;-55
2022/10/28 01:50:01;;;;;;;93.93;82.15;;;;;20.60;100704.00;;;;2076809;28;20221;-56
2022/10/28 01:51:18;;;;;;;94.63;83.32;;;;;20.60;100700.00;;;;2069984;28;20210;-57
2022/10/28 01:52:21;;;;;;;91.30;81.28;;;;;20.60;100699.00;;;;2059100;28;20764;-58
2022/10/28 01:53:27;;;;;;;96.00;83.75;;;;;20.60;100689.00;;;;2071339;28;20237;-56
2022/10/28 01:54:28;;;;;;;94.97;82.55;;;;;20.60;100693.00;;;;2078050;28;20867;-56
2022/10/28 01:55:32;;;;;;;93.63;82.10;;;;;20.60;100684.00;;;;2077350;28;20217;-56
2022/10/28 01:56:36;;;;;;;94.88;82.88;;;;;20.50;100693.00;;;;2068221;28;20836;-56
2022/10/28 01:57:36;;;;;;;90.93;78.68;;;;;20.60;100687.00;;;;2064991;28;20223;-56
2022/10/28 01:58:37;;;;;;;95.17;80.43;;;;;20.60;100690.00;;;;2077978;28;20213;-56
2022/10/28 01:59:37;;;;;;;92.20;81.00;;;;;20.60;100683.00;;;;2070225;28;20357;-56
2022/10/28 02:00:37;;;;;;;89.20;79.30;;;;;20.60;100691.00;;;;2062158;28;20218;-56
2022/10/28 02:01:38;;;;;;;97.27;84.57;;;;;20.60;100712.00;;;;2062318;28;20214;-58
2022/10/28 02:02:38;;;;;;;95.57;83.10;;;;;20.60;100716.00;;;;2077373;28;20232;-56
2022/10/28 02:03:38;;;;;;;97.07;86.30;;;;;20.60;100716.00;;;;2079042;28;20209;-56
2022/10/28 02:04:39;;;;;;;94.10;83.47;;;;;20.60;100693.00;;;;2075817;28;20237;-57
2022/10/28 02:05:42;;;;;;;90.37;78.03;;;;;20.60;100695.00;;;;2078958;28;20209;-57
2022/10/28 02:06:43;;;;;;;90.13;79.65;;;;;20.60;100706.00;;;;2079181;28;20488;-55
2022/10/28 02:07:43;;;;;;;92.30;79.07;;;;;20.60;100696.00;;;;2078065;28;20221;-57
2022/10/28 02:09:09;;;;;;;91.97;78.90;;;;;20.60;100692.00;;;;2078751;28;20548;-56
2022/10/28 02:10:14;;;;;;;86.10;76.85;;;;;20.60;100696.00;;;;2078405;28;20705;-56
2022/10/28 02:11:21;;;;;;;82.00;73.10;;;;;20.60;100703.00;;;;2073534;28;20228;-56
2022/10/28 02:12:32;;;;;;;85.22;76.18;;;;;20.60;100691.00;;;;2077435;28;20259;-56
2022/10/28 02:13:32;;;;;;;85.28;73.90;;;;;20.60;100701.00;;;;2070315;28;20210;-55
2022/10/28 02:15:30;;;;;;;81.70;72.70;;;;;20.60;100699.00;;;;2071504;28;20210;-55
2022/10/28 02:16:48;;;;;;;86.65;75.13;;;;;20.60;100687.00;;;;2059301;28;20214;-57
2022/10/28 02:18:07;;;;;;;82.57;72.40;;;;;20.60;100696.00;;;;2061492;28;20215;-56
2022/10/28 02:19:16;;;;;;;82.22;71.65;;;;;20.60;100698.00;;;;2061449;28;20250;-56
2022/10/28 02:20:42;;;;;;;82.18;71.50;;;;;20.60;100694.00;;;;2061023;28;20317;-54
2022/10/28 02:21:45;;;;;;;83.28;72.03;;;;;20.60;100692.00;;;;2061787;28;20215;-56
2022/10/28 02:22:54;;;;;;;83.97;72.88;;;;;20.60;100694.00;;;;2078342;28;20685;-57
2022/10/28 02:24:11;;;;;;;80.57;71.63;;;;;20.60;100698.00;;;;2078282;28;20284;-58
2022/10/28 02:25:12;;;;;;;85.50;75.07;;;;;20.60;100694.00;;;;2070334;28;20218;-56
2022/10/28 02:26:26;;;;;;;79.87;71.17;;;;;20.60;100696.00;;;;2070695;28;20681;-57
2022/10/28 02:27:35;;;;;;;78.18;69.72;;;;;20.60;100697.00;;;;2078587;28;20213;-57
2022/10/28 02:28:58;;;;;;;78.82;69.93;;;;;20.50;100704.00;;;;2077903;28;20225;-55
2022/10/28 02:30:00;;;;;;;78.30;67.75;;;;;20.60;100693.00;;;;2077414;28;20221;-57
2022/10/28 02:31:04;;;;;;;75.35;65.15;;;;;20.60;100706.00;;;;2077743;28;20221;-56
2022/10/28 02:32:10;;;;;;;75.30;65.25;;;;;20.60;100689.00;;;;2072965;28;20209;-59
2022/10/28 02:33:12;;;;;;;76.10;67.32;;;;;20.60;100707.00;;;;2076912;28;20301;-57
2022/10/28 02:34:16;;;;;;;77.15;68.75;;;;;20.60;100687.00;;;;2078269;28;20711;-56
2022/10/28 02:35:30;;;;;;;78.35;67.07;;;;;20.60;100695.00;;;;2070436;28;20214;-55
2022/10/28 02:36:32;;;;;;;72.55;64.57;;;;;20.60;100690.00;;;;2077881;28;20209;-57
2022/10/28 02:37:33;;;;;;;76.50;68.28;;;;;20.60;100703.00;;;;2069460;28;20276;-58
2022/10/28 02:38:42;;;;;;;72.23;64.50;;;;;20.60;100690.00;;;;2077586;28;20213;-57
2022/10/28 02:39:45;;;;;;;74.85;62.97;;;;;20.60;100669.00;;;;2077763;28;20233;-56
2022/10/28 02:40:48;;;;;;;73.35;65.30;;;;;20.60;100689.00;;;;2077592;28;20213;-58
2022/10/28 02:41:49;;;;;;;74.78;66.72;;;;;20.60;100666.00;;;;2077358;28;20209;-56
2022/10/28 02:42:51;;;;;;;74.13;66.03;;;;;20.60;100677.00;;;;2069781;28;20715;-57
2022/10/28 02:43:53;;;;;;;79.18;67.68;;;;;20.60;100679.00;;;;2077523;28;20709;-55
2022/10/28 02:44:58;;;;;;;74.15;66.13;;;;;20.60;100683.00;;;;2077364;28;20224;-57
2022/10/28 02:45:58;;;;;;;75.40;65.40;;;;;20.60;100672.00;;;;2070281;28;20222;-56
2022/10/28 02:47:01;;;;;;;74.47;66.27;;;;;20.60;100674.00;;;;2078331;28;20213;-56
2022/10/28 02:48:03;;;;;;;75.50;65.93;;;;;20.60;100656.00;;;;2069991;28;20222;-56
2022/10/28 02:49:06;;;;;;;72.35;63.50;;;;;20.60;100672.00;;;;2070219;28;20211;-57
2022/10/28 02:50:09;;;;;;;75.00;65.85;;;;;20.60;100679.00;;;;2077678;28;20222;-62
2022/10/28 02:51:11;;;;;;;68.38;60.90;;;;;20.60;100674.00;;;;2056226;28;20692;-56
2022/10/28 02:52:11;;;;;;;70.68;61.40;;;;;20.60;100679.00;;;;2045564;28;20212;-56
2022/10/28 02:53:24;;;;;;;73.07;63.07;;;;;20.60;100673.00;;;;2061621;28;20285;-56
2022/10/28 02:54:37;;;;;;;71.40;63.60;;;;;20.60;100679.00;;;;2055396;28;20235;-56
2022/10/28 02:55:39;;;;;;;75.30;63.83;;;;;20.60;100675.00;;;;2062618;28;20266;-62
2022/10/28 02:56:46;;;;;;;70.22;62.72;;;;;20.60;100676.00;;;;2070409;28;20225;-56
2022/10/28 02:57:48;;;;;;;68.53;60.92;;;;;20.60;100666.00;;;;2079747;28;20221;-57
2022/10/28 02:58:48;;;;;;;67.85;60.30;;;;;20.60;100677.00;;;;2071674;28;20242;-57
2022/10/28 02:59:55;;;;;;;67.93;60.63;;;;;20.60;100678.00;;;;2071699;28;20240;-57
2022/10/28 03:00:56;;;;;;;68.38;61.10;;;;;20.60;100673.00;;;;2079671;28;20210;-57
2022/10/28 03:01:56;;;;;;;67.80;60.50;;;;;20.60;100664.00;;;;2077976;28;20598;-56
2022/10/28 03:02:56;;;;;;;69.37;61.67;;;;;20.60;100677.00;;;;2080002;28;20378;-57
2022/10/28 03:03:57;;;;;;;68.37;60.97;;;;;20.60;100672.00;;;;2076654;28;20210;-58
2022/10/28 03:04:58;;;;;;;63.73;56.73;;;;;20.60;100662.00;;;;2072360;28;20282;-56
2022/10/28 03:05:58;;;;;;;65.10;57.03;;;;;20.60;100663.00;;;;2073870;28;20224;-56
2022/10/28 03:06:59;;;;;;;67.30;60.10;;;;;20.60;100664.00;;;;2076352;28;20221;-56
2022/10/28 03:07:59;;;;;;;64.30;57.50;;;;;20.60;100661.00;;;;2074970;28;20233;-56
2022/10/28 03:08:59;;;;;;;62.40;55.70;;;;;20.60;100663.00;;;;2079481;28;20270;-56
2022/10/28 03:10:00;;;;;;;64.17;57.20;;;;;20.60;100666.00;;;;2079107;28;20213;-56
2022/10/28 03:11:00;;;;;;;64.77;57.87;;;;;20.60;100670.00;;;;2079029;28;20217;-56
2022/10/28 03:12:00;;;;;;;63.27;56.03;;;;;20.60;100667.00;;;;2069317;28;20492;-56
2022/10/28 03:13:01;;;;;;;66.37;58.90;;;;;20.60;100674.00;;;;2079240;28;20214;-57
2022/10/28 03:14:01;;;;;;;64.33;56.80;;;;;20.60;100673.00;;;;2079765;28;20243;-57
2022/10/28 03:15:02;;;;;;;58.80;52.60;;;;;20.60;100661.00;;;;2079817;28;20233;-58
2022/10/28 03:16:03;;;;;;;62.35;55.08;;;;;20.60;100661.00;;;;2080364;28;20217;-58
2022/10/28 03:17:03;;;;;;;63.37;56.47;;;;;20.60;100674.00;;;;2079689;28;20355;-55
2022/10/28 03:18:03;;;;;;;61.43;54.80;;;;;20.60;100656.00;;;;2079678;28;20264;-57
2022/10/28 03:19:04;;;;;;;62.27;55.10;;;;;20.60;100664.00;;;;2079599;28;20651;-57
2022/10/28 03:20:04;;;;;;;62.63;55.60;;;;;20.60;100666.00;;;;2073387;28;20584;-57
2022/10/28 03:21:05;;;;;;;62.07;55.40;;;;;20.60;100666.00;;;;2072112;28;20579;-56
2022/10/28 03:22:05;;;;;;;62.77;56.07;;;;;20.60;100664.00;;;;2071590;28;20445;-57
2022/10/28 03:23:05;;;;;;;64.37;57.17;;;;;20.60;100660.00;;;;2072309;28;20206;-57
2022/10/28 03:24:06;;;;;;;61.57;54.83;;;;;20.60;100671.00;;;;2072073;28;20222;-58
2022/10/28 03:25:06;;;;;;;62.37;55.60;;;;;20.60;100665.00;;;;2071067;28;20221;-57
2022/10/28 03:26:07;;;;;;;61.57;54.83;;;;;20.60;100659.00;;;;2071267;28;20222;-56
2022/10/28 03:27:07;;;;;;;62.27;55.67;;;;;20.60;100662.00;;;;2072166;28;20218;-55
2022/10/28 03:28:07;;;;;;;61.43;54.70;;;;;20.60;100665.00;;;;2071335;28;20221;-55
2022/10/28 03:29:08;;;;;;;62.73;56.30;;;;;20.60;100657.00;;;;2071065;28;20222;-56
2022/10/28 03:30:08;;;;;;;57.70;51.70;;;;;20.60;100657.00;;;;2071163;28;20218;-58
2022/10/28 03:31:09;;;;;;;60.40;53.90;;;;;20.60;100562.00;;;;2072146;28;20217;-56
2022/10/28 03:32:09;;;;;;;59.73;53.43;;;;;20.60;100659.00;;;;2071175;28;20214;-55
2022/10/28 03:33:09;;;;;;;64.40;53.67;;;;;20.60;100655.00;;;;2075607;28;20595;-56
2022/10/28 03:34:10;;;;;;;57.60;51.53;;;;;20.60;100660.00;;;;2080116;28;20600;-56
2022/10/28 03:35:10;;;;;;;59.33;52.87;;;;;20.60;100655.00;;;;2080327;28;20648;-57
2022/10/28 03:36:10;;;;;;;57.67;51.67;;;;;20.60;100655.00;;;;2080228;28;20225;-57
2022/10/28 03:37:11;;;;;;;60.73;54.17;;;;;20.60;100644.00;;;;2080286;28;20213;-58
2022/10/28 03:38:11;;;;;;;59.47;53.07;;;;;20.60;100647.00;;;;2079718;28;20220;-57
2022/10/28 03:39:11;;;;;;;59.50;53.20;;;;;20.60;100645.00;;;;2079887;28;20587;-56
2022/10/28 03:40:12;;;;;;;58.63;52.53;;;;;20.60;100643.00;;;;2079955;28;20659;-56
2022/10/28 03:41:12;;;;;;;58.50;52.10;;;;;20.60;100643.00;;;;2080115;28;20584;-56
2022/10/28 03:42:12;;;;;;;63.83;57.00;;;;;20.60;100646.00;;;;2079287;28;20226;-57
2022/10/28 03:43:13;;;;;;;58.67;52.37;;;;;20.60;100651.00;;;;2072043;28;20245;-56
2022/10/28 03:44:13;;;;;;;59.57;53.20;;;;;20.60;100643.00;;;;2077365;28;20214;-57
2022/10/28 03:45:13;;;;;;;60.17;53.67;;;;;20.60;100652.00;;;;2079731;28;20221;-57
2022/10/28 03:46:14;;;;;;;55.87;49.90;;;;;20.60;100662.00;;;;2079895;28;20221;-56
2022/10/28 03:47:14;;;;;;;58.63;52.40;;;;;20.60;100645.00;;;;2080156;28;20233;-56
2022/10/28 03:48:14;;;;;;;59.00;52.60;;;;;20.60;100655.00;;;;2080255;28;20236;-56
2022/10/28 03:49:15;;;;;;;56.20;50.13;;;;;20.60;100638.00;;;;2080283;28;20240;-56
2022/10/28 03:50:15;;;;;;;59.27;53.07;;;;;20.60;100654.00;;;;2080123;28;20228;-56
2022/10/28 03:51:15;;;;;;;54.30;48.70;;;;;20.60;100630.00;;;;2072105;28;20344;-62
2022/10/28 03:52:16;;;;;;;57.40;51.17;;;;;20.50;100643.00;;;;2071087;28;20641;-61
2022/10/28 03:53:16;;;;;;;54.63;48.90;;;;;20.60;100638.00;;;;2072006;28;20214;-56
2022/10/28 03:54:16;;;;;;;53.83;48.03;;;;;20.60;100634.00;;;;2071737;28;20214;-57
2022/10/28 03:55:17;;;;;;;56.97;50.60;;;;;20.60;100635.00;;;;2071894;28;20245;-57
2022/10/28 03:56:17;;;;;;;55.73;49.73;;;;;20.60;100637.00;;;;2072026;28;20222;-56
2022/10/28 03:57:17;;;;;;;57.13;50.97;;;;;20.60;100630.00;;;;2072113;28;20215;-56
2022/10/28 03:58:18;;;;;;;55.33;49.40;;;;;20.60;100635.00;;;;2071921;28;20317;-56
2022/10/28 03:59:18;;;;;;;56.63;50.70;;;;;20.60;100634.00;;;;2071792;28;20218;-56
2022/10/28 04:00:19;;;;;;;57.07;51.07;;;;;20.50;100630.00;;;;2071698;28;20226;-56
2022/10/28 04:01:19;;;;;;;53.63;47.93;;;;;20.60;100630.00;;;;2071904;28;20246;-57
2022/10/28 04:02:19;;;;;;;54.63;48.87;;;;;20.50;100631.00;;;;2071224;28;20255;-56
2022/10/28 04:03:20;;;;;;;53.70;47.90;;;;;20.60;100629.00;;;;2071714;28;20242;-56
2022/10/28 04:04:21;;;;;;;53.47;47.83;;;;;20.60;100632.00;;;;2071483;28;20310;-57
2022/10/28 04:05:21;;;;;;;52.40;46.67;;;;;20.60;100630.00;;;;2071933;28;20301;-56
2022/10/28 04:06:21;;;;;;;51.73;46.23;;;;;20.60;100641.00;;;;2072070;28;20218;-56
2022/10/28 04:07:22;;;;;;;50.87;45.47;;;;;20.60;100629.00;;;;2071787;28;20222;-55
2022/10/28 04:08:23;;;;;;;51.80;46.10;;;;;20.60;100627.00;;;;2071140;28;20588;-57
2022/10/28 04:09:23;;;;;;;51.20;45.73;;;;;20.20;100643.00;;;;2069167;28;20539;-57
2022/10/28 04:10:23;;;;;;;52.70;47.00;;;;;20.50;100633.00;;;;2071734;28;20306;-56
2022/10/28 04:11:24;;;;;;;50.90;45.67;;;;;20.60;100622.00;;;;2071821;28;20213;-56
2022/10/28 04:12:24;;;;;;;51.07;45.47;;;;;20.60;100630.00;;;;2070079;28;20214;-56
2022/10/28 04:13:24;;;;;;;53.90;48.10;;;;;20.60;100629.00;;;;2070644;28;20214;-57
2022/10/28 04:14:24;;;;;;;53.33;47.83;;;;;20.60;100636.00;;;;2073771;28;20428;-57
2022/10/28 04:15:25;;;;;;;52.40;46.70;;;;;20.60;100631.00;;;;2079737;28;20213;-57
2022/10/28 04:16:25;;;;;;;51.57;46.10;;;;;20.60;100634.00;;;;2075870;28;20206;-56
2022/10/28 04:17:25;;;;;;;51.87;46.37;;;;;20.60;100637.00;;;;2071659;28;20343;-56
2022/10/28 04:18:26;;;;;;;51.27;45.70;;;;;20.60;100629.00;;;;2071927;28;20214;-57
2022/10/28 04:19:26;;;;;;;52.63;47.10;;;;;20.60;100628.00;;;;2073350;28;20218;-57
2022/10/28 04:20:27;;;;;;;53.07;47.27;;;;;20.60;100634.00;;;;2076208;28;20670;-57
2022/10/28 04:21:27;;;;;;;52.33;46.63;;;;;20.60;100637.00;;;;2079903;28;20933;-58
2022/10/28 04:22:27;;;;;;;50.90;45.43;;;;;20.30;100642.00;;;;2078821;28;20262;-56
2022/10/28 04:23:28;;;;;;;49.40;44.40;;;;;20.60;100636.00;;;;2079723;28;20209;-57
2022/10/28 04:24:28;;;;;;;49.53;44.43;;;;;20.60;100647.00;;;;2079387;28;20201;-57
2022/10/28 04:25:28;;;;;;;49.83;44.63;;;;;20.60;100646.00;;;;2072345;28;21075;-56
2022/10/28 04:26:30;;;;;;;52.77;47.10;;;;;20.60;100641.00;;;;2071562;28;20702;-58
2022/10/28 04:27:30;;;;;;;50.95;45.55;;;;;20.60;100636.00;;;;2072070;28;20284;-57
2022/10/28 04:28:31;;;;;;;49.63;44.33;;;;;20.60;100630.00;;;;2071640;28;20249;-57
2022/10/28 04:29:32;;;;;;;49.17;43.93;;;;;20.60;100634.00;;;;2071196;28;20214;-57
2022/10/28 04:30:32;;;;;;;51.60;46.10;;;;;20.60;100658.00;;;;2071952;28;20449;-57
2022/10/28 04:31:32;;;;;;;49.07;43.70;;;;;20.60;100633.00;;;;2071987;28;20764;-55
2022/10/28 04:32:33;;;;;;;50.33;45.00;;;;;20.60;100645.00;;;;2071099;28;20603;-56
2022/10/28 04:33:33;;;;;;;49.00;43.73;;;;;20.60;100632.00;;;;2071678;28;20702;-56
2022/10/28 04:34:33;;;;;;;51.50;46.00;;;;;20.50;100639.00;;;;2071428;28;20256;-56
2022/10/28 04:35:34;;;;;;;52.10;46.27;;;;;20.50;100639.00;;;;2071549;28;20214;-57
2022/10/28 04:36:34;;;;;;;49.83;44.53;;;;;20.60;100638.00;;;;2071940;28;20233;-57
2022/10/28 04:37:34;;;;;;;51.07;45.70;;;;;20.60;100640.00;;;;2071430;28;20216;-56
2022/10/28 04:38:35;;;;;;;52.47;46.77;;;;;20.50;100640.00;;;;2071014;28;20215;-55
2022/10/28 04:39:35;;;;;;;49.70;44.40;;;;;20.50;100633.00;;;;2070448;28;20218;-56
2022/10/28 04:40:35;;;;;;;49.43;44.33;;;;;20.60;100648.00;;;;2071714;28;20315;-56
2022/10/28 04:41:36;;;;;;;48.73;43.60;;;;;20.60;100653.00;;;;2071940;28;20245;-57
2022/10/28 04:42:36;;;;;;;47.83;42.73;;;;;20.60;100635.00;;;;2070795;28;20210;-56
2022/10/28 04:43:36;;;;;;;49.57;44.47;;;;;20.50;100636.00;;;;2072959;28;20210;-57
2022/10/28 04:44:37;;;;;;;45.83;41.03;;;;;20.60;100644.00;;;;2079094;28;20213;-57
2022/10/28 04:45:38;;;;;;;47.10;42.10;;;;;20.20;100641.00;;;;2079781;28;20209;-57
2022/10/28 04:46:38;;;;;;;48.27;43.23;;;;;20.60;100645.00;;;;2078887;28;20221;-58
2022/10/28 04:47:38;;;;;;;46.27;41.43;;;;;20.60;100643.00;;;;2079067;28;20484;-58
2022/10/28 04:48:39;;;;;;;46.90;41.80;;;;;20.60;100642.00;;;;2080158;28;20291;-57
2022/10/28 04:49:39;;;;;;;48.53;43.50;;;;;20.60;100648.00;;;;2079542;28;20585;-58
2022/10/28 04:50:40;;;;;;;46.00;41.07;;;;;20.60;100639.00;;;;2079402;28;20574;-57
2022/10/28 04:51:40;;;;;;;47.70;42.70;;;;;20.60;100638.00;;;;2077774;28;20221;-57
2022/10/28 04:52:40;;;;;;;46.57;41.73;;;;;20.50;100637.00;;;;2077661;28;20222;-57
2022/10/28 04:53:41;;;;;;;46.00;41.00;;;;;20.60;100639.00;;;;2079066;28;20225;-58
2022/10/28 04:54:41;;;;;;;47.10;42.17;;;;;20.60;100645.00;;;;2079071;28;20224;-58
2022/10/28 04:55:41;;;;;;;45.57;40.87;;;;;20.60;100641.00;;;;2074954;28;20257;-57
2022/10/28 04:56:41;;;;;;;46.43;41.50;;;;;20.60;100641.00;;;;2071427;28;20214;-56
2022/10/28 04:57:42;;;;;;;46.33;41.43;;;;;20.60;100644.00;;;;2071472;28;20221;-56
2022/10/28 04:58:42;;;;;;;48.60;43.40;;;;;20.50;100643.00;;;;2071374;28;20214;-57
2022/10/28 04:59:42;;;;;;;44.47;39.70;;;;;20.60;100640.00;;;;2071225;28;20222;-56
2022/10/28 05:00:43;;;;;;;47.13;42.20;;;;;20.50;100652.00;;;;2071892;28;20229;-58
2022/10/28 05:01:43;;;;;;;46.83;42.03;;;;;20.60;100654.00;;;;2071066;28;20210;-58
2022/10/28 05:02:43;;;;;;;46.23;41.50;;;;;20.60;100658.00;;;;2069768;28;20232;-58
2022/10/28 05:03:44;;;;;;;43.90;39.13;;;;;20.60;100652.00;;;;2071477;28;20268;-58
2022/10/28 05:04:44;;;;;;;43.03;38.73;;;;;20.60;100649.00;;;;2071634;28;20210;-56
2022/10/28 05:05:44;;;;;;;44.37;39.77;;;;;20.60;100655.00;;;;2071338;28;20218;-57